Gerald R Ford International Airport (GRR)


Airport Diagram
Current Weather/Forecast (LIFR Conditions)
METAR KGRR 252253Z 24007KT 1 3/4SM -DZ BR OVC004 01/01 A2977 RMK AO2 DZB50 SLP089 P0000 T00110011
TAF KGRR 252227Z 2522/2618 20005KT 6SM BR OVC006 FM260100 VRB04KT 4SM BR OVC004 FM261000 26009KT 2SM -SN BR OVC003

All Charts
General
Chart Name Download
AIRPORT DIAGRAM
TAKEOFF MINIMUMS
ALTERNATE MINIMUMS
RADAR MINIMUMS
HOT SPOT

Approaches
Chart Name Download
ILS OR LOC RWY 08R
ILS OR LOC RWY 26L
ILS OR LOC RWY 35
ILS RWY 35 (SA CAT I - II)
RNAV (GPS) RWY 08L
RNAV (GPS) RWY 08R
RNAV (GPS) RWY 17
RNAV (GPS) RWY 26L
RNAV (GPS) RWY 26R
RNAV (GPS) RWY 35
VOR RWY 17